sensor_id;sensor_type;location;lat;lon;timestamp;pressure;altitude;pressure_sealevel;temperature;humidity
68230;BME280;55048;52.220;5.160;2023-04-07T00:01:42;101395.28;;;9.93;95.11
68230;BME280;55048;52.220;5.160;2023-04-07T00:04:08;101397.41;;;9.84;95.49
68230;BME280;55048;52.220;5.160;2023-04-07T00:06:33;101377.63;;;9.80;95.16
68230;BME280;55048;52.220;5.160;2023-04-07T00:08:59;101383.75;;;9.81;95.01
68230;BME280;55048;52.220;5.160;2023-04-07T00:11:24;101359.06;;;9.74;94.82
68230;BME280;55048;52.220;5.160;2023-04-07T00:13:50;101392.63;;;9.93;94.88
68230;BME280;55048;52.220;5.160;2023-04-07T00:16:15;101392.91;;;9.85;95.23
68230;BME280;55048;52.220;5.160;2023-04-07T00:18:40;101359.53;;;9.70;94.89
68230;BME280;55048;52.220;5.160;2023-04-07T00:21:06;101386.56;;;9.86;94.86
68230;BME280;55048;52.220;5.160;2023-04-07T00:23:31;101362.38;;;9.69;94.97
68230;BME280;55048;52.220;5.160;2023-04-07T00:25:57;101394.91;;;9.89;95.02
68230;BME280;55048;52.220;5.160;2023-04-07T00:28:22;101380.28;;;9.80;94.49
68230;BME280;55048;52.220;5.160;2023-04-07T00:30:48;101336.22;;;9.48;95.13
68230;BME280;55048;52.220;5.160;2023-04-07T00:33:13;101375.00;;;9.74;94.78
68230;BME280;55048;52.220;5.160;2023-04-07T00:35:38;101396.97;;;9.87;94.92
68230;BME280;55048;52.220;5.160;2023-04-07T00:38:04;101363.19;;;9.69;95.45
68230;BME280;55048;52.220;5.160;2023-04-07T00:40:29;101366.88;;;9.68;94.95
68230;BME280;55048;52.220;5.160;2023-04-07T00:42:55;101365.19;;;9.74;94.68
68230;BME280;55048;52.220;5.160;2023-04-07T00:45:21;101390.19;;;9.91;95.00
68230;BME280;55048;52.220;5.160;2023-04-07T00:47:46;101377.00;;;9.78;94.93
68230;BME280;55048;52.220;5.160;2023-04-07T00:50:12;101375.00;;;9.74;95.06
68230;BME280;55048;52.220;5.160;2023-04-07T00:52:38;101369.16;;;9.65;94.43
68230;BME280;55048;52.220;5.160;2023-04-07T00:55:04;101400.34;;;9.76;95.68
68230;BME280;55048;52.220;5.160;2023-04-07T00:57:30;101382.06;;;9.61;94.94
68230;BME280;55048;52.220;5.160;2023-04-07T00:59:56;101390.41;;;9.65;95.64
68230;BME280;55048;52.220;5.160;2023-04-07T01:02:33;101379.13;;;9.69;95.11
68230;BME280;55048;52.220;5.160;2023-04-07T01:05:15;101402.13;;;9.82;95.35
68230;BME280;55048;52.220;5.160;2023-04-07T01:10:17;101388.53;;;9.72;95.08
68230;BME280;55048;52.220;5.160;2023-04-07T01:13:05;101399.72;;;9.74;95.21
68230;BME280;55048;52.220;5.160;2023-04-07T01:15:33;101396.38;;;9.85;95.11
68230;BME280;55048;52.220;5.160;2023-04-07T01:18:07;101403.69;;;9.90;94.68
68230;BME280;55048;52.220;5.160;2023-04-07T01:20:36;101389.88;;;9.81;94.60
68230;BME280;55048;52.220;5.160;2023-04-07T01:23:05;101366.88;;;9.68;94.54
68230;BME280;55048;52.220;5.160;2023-04-07T01:28:55;101384.78;;;9.80;93.81
68230;BME280;55048;52.220;5.160;2023-04-07T01:31:22;101386.19;;;9.82;94.24
68230;BME280;55048;52.220;5.160;2023-04-07T01:33:52;101401.03;;;9.90;94.16
68230;BME280;55048;52.220;5.160;2023-04-07T01:36:20;101370.09;;;9.77;93.48
68230;BME280;55048;52.220;5.160;2023-04-07T01:38:47;101403.03;;;9.94;93.81
68230;BME280;55048;52.220;5.160;2023-04-07T01:41:16;101388.78;;;9.89;93.55
68230;BME280;55048;52.220;5.160;2023-04-07T01:43:43;101392.63;;;9.93;93.39
68230;BME280;55048;52.220;5.160;2023-04-07T01:46:09;101402.00;;;9.95;93.40
68230;BME280;55048;52.220;5.160;2023-04-07T01:48:36;101401.25;;;9.88;93.83
68230;BME280;55048;52.220;5.160;2023-04-07T01:51:03;101387.06;;;9.76;94.14
68230;BME280;55048;52.220;5.160;2023-04-07T01:53:30;101408.38;;;9.94;93.53
68230;BME280;55048;52.220;5.160;2023-04-07T01:55:55;101418.53;;;9.97;93.16
68230;BME280;55048;52.220;5.160;2023-04-07T01:58:21;101409.31;;;10.00;93.45
68230;BME280;55048;52.220;5.160;2023-04-07T02:00:47;101415.88;;;9.97;93.96
68230;BME280;55048;52.220;5.160;2023-04-07T02:03:45;101410.38;;;9.99;93.29
68230;BME280;55048;52.220;5.160;2023-04-07T02:06:20;101402.81;;;9.96;93.71
68230;BME280;55048;52.220;5.160;2023-04-07T02:08:56;101373.34;;;9.79;93.03
68230;BME280;55048;52.220;5.160;2023-04-07T02:11:23;101415.44;;;10.01;92.82
68230;BME280;55048;52.220;5.160;2023-04-07T02:13:54;101393.00;;;9.96;92.69
68230;BME280;55048;52.220;5.160;2023-04-07T02:16:21;101407.09;;;9.97;92.93
68230;BME280;55048;52.220;5.160;2023-04-07T02:18:46;101411.34;;;10.05;92.85
68230;BME280;55048;52.220;5.160;2023-04-07T02:21:13;101387.09;;;9.94;92.47
68230;BME280;55048;52.220;5.160;2023-04-07T02:23:39;101407.06;;;10.04;92.30
68230;BME280;55048;52.220;5.160;2023-04-07T02:26:05;101386.28;;;9.94;92.52
68230;BME280;55048;52.220;5.160;2023-04-07T02:28:30;101405.59;;;10.08;92.25
68230;BME280;55048;52.220;5.160;2023-04-07T02:30:56;101402.16;;;10.01;92.10
68230;BME280;55048;52.220;5.160;2023-04-07T02:33:21;101393.88;;;9.90;92.21
68230;BME280;55048;52.220;5.160;2023-04-07T02:35:47;101404.59;;;10.02;92.24
68230;BME280;55048;52.220;5.160;2023-04-07T02:38:12;101412.94;;;10.06;92.32
68230;BME280;55048;52.220;5.160;2023-04-07T02:40:38;101418.91;;;10.01;92.76
68230;BME280;55048;52.220;5.160;2023-04-07T02:43:03;101402.59;;;9.97;92.57
68230;BME280;55048;52.220;5.160;2023-04-07T02:45:30;101416.50;;;10.00;92.64
68230;BME280;55048;52.220;5.160;2023-04-07T02:47:55;101357.56;;;9.59;92.69
68230;BME280;55048;52.220;5.160;2023-04-07T02:50:21;101414.66;;;10.00;92.80
68230;BME280;55048;52.220;5.160;2023-04-07T02:52:46;101389.81;;;9.88;92.48
68230;BME280;55048;52.220;5.160;2023-04-07T02:55:13;101370.69;;;9.79;91.94
68230;BME280;55048;52.220;5.160;2023-04-07T02:57:39;101404.66;;;9.95;92.41
68230;BME280;55048;52.220;5.160;2023-04-07T03:00:09;101412.63;;;9.95;93.04
68230;BME280;55048;52.220;5.160;2023-04-07T03:03:04;101388.84;;;9.82;92.87
68230;BME280;55048;52.220;5.160;2023-04-07T03:05:34;101394.75;;;9.84;92.20
68230;BME280;55048;52.220;5.160;2023-04-07T03:08:01;101397.63;;;9.83;93.16
68230;BME280;55048;52.220;5.160;2023-04-07T03:10:27;101403.97;;;9.82;93.80
68230;BME280;55048;52.220;5.160;2023-04-07T03:12:52;101377.97;;;9.65;93.37
68230;BME280;55048;52.220;5.160;2023-04-07T03:15:18;101398.06;;;9.80;93.26
68230;BME280;55048;52.220;5.160;2023-04-07T03:17:46;101400.06;;;9.84;93.32
68230;BME280;55048;52.220;5.160;2023-04-07T03:20:14;101396.66;;;9.77;93.43
68230;BME280;55048;52.220;5.160;2023-04-07T03:22:40;101374.47;;;9.65;93.82
68230;BME280;55048;52.220;5.160;2023-04-07T03:25:11;101364.69;;;9.65;93.21
68230;BME280;55048;52.220;5.160;2023-04-07T03:27:37;101401.03;;;9.90;93.37
68230;BME280;55048;52.220;5.160;2023-04-07T03:30:05;101406.94;;;9.92;93.10
68230;BME280;55048;52.220;5.160;2023-04-07T03:32:31;101407.00;;;9.85;93.61
68230;BME280;55048;52.220;5.160;2023-04-07T03:34:56;101408.84;;;9.85;93.88
68230;BME280;55048;52.220;5.160;2023-04-07T03:37:22;101372.84;;;9.64;93.42
68230;BME280;55048;52.220;5.160;2023-04-07T03:39:47;101399.69;;;9.81;93.15
68230;BME280;55048;52.220;5.160;2023-04-07T03:42:29;101385.47;;;9.68;93.46
68230;BME280;55048;52.220;5.160;2023-04-07T03:45:00;101373.34;;;9.54;93.64
68230;BME280;55048;52.220;5.160;2023-04-07T03:47:26;101387.75;;;9.65;93.72
68230;BME280;55048;52.220;5.160;2023-04-07T03:49:56;101395.56;;;9.60;94.22
68230;BME280;55048;52.220;5.160;2023-04-07T03:52:22;101399.47;;;9.57;94.45
68230;BME280;55048;52.220;5.160;2023-04-07T03:54:51;101416.13;;;9.71;93.97
68230;BME280;55048;52.220;5.160;2023-04-07T03:57:19;101400.22;;;9.64;93.55
68230;BME280;55048;52.220;5.160;2023-04-07T03:59:47;101416.28;;;9.76;93.40
68230;BME280;55048;52.220;5.160;2023-04-07T04:02:16;101393.66;;;9.67;93.15
68230;BME280;55048;52.220;5.160;2023-04-07T04:04:42;101395.94;;;9.63;93.14
68230;BME280;55048;52.220;5.160;2023-04-07T04:07:09;101404.69;;;9.70;93.01
68230;BME280;55048;52.220;5.160;2023-04-07T04:09:40;101414.66;;;9.75;93.05
68230;BME280;55048;52.220;5.160;2023-04-07T04:12:06;101417.97;;;9.70;93.37
68230;BME280;55048;52.220;5.160;2023-04-07T04:14:36;101413.25;;;9.73;92.91
68230;BME280;55048;52.220;5.160;2023-04-07T04:17:02;101411.19;;;9.75;92.49
68230;BME280;55048;52.220;5.160;2023-04-07T04:19:36;101413.66;;;9.69;92.49
68230;BME280;55048;52.220;5.160;2023-04-07T04:22:10;101413.06;;;9.67;92.47
68230;BME280;55048;52.220;5.160;2023-04-07T04:24:46;101425.88;;;9.77;92.44
68230;BME280;55048;52.220;5.160;2023-04-07T04:27:12;101416.75;;;9.66;92.38
68230;BME280;55048;52.220;5.160;2023-04-07T04:29:37;101424.28;;;9.69;92.27
68230;BME280;55048;52.220;5.160;2023-04-07T04:32:05;101420.47;;;9.59;92.72
68230;BME280;55048;52.220;5.160;2023-04-07T04:34:30;101436.31;;;9.72;92.69
68230;BME280;55048;52.220;5.160;2023-04-07T04:36:56;101435.34;;;9.66;92.11
68230;BME280;55048;52.220;5.160;2023-04-07T04:39:21;101441.25;;;9.68;92.52
68230;BME280;55048;52.220;5.160;2023-04-07T04:41:47;101445.97;;;9.66;91.95
68230;BME280;55048;52.220;5.160;2023-04-07T04:44:13;101450.41;;;9.73;92.11
68230;BME280;55048;52.220;5.160;2023-04-07T04:46:40;101408.34;;;9.44;91.29
68230;BME280;55048;52.220;5.160;2023-04-07T04:49:06;101428.84;;;9.62;91.37
68230;BME280;55048;52.220;5.160;2023-04-07T04:51:33;101431.88;;;9.66;91.32
68230;BME280;55048;52.220;5.160;2023-04-07T04:54:04;101428.22;;;9.60;91.23
68230;BME280;55048;52.220;5.160;2023-04-07T04:56:32;101432.69;;;9.66;90.90
68230;BME280;55048;52.220;5.160;2023-04-07T04:58:57;101430.03;;;9.66;90.76
68230;BME280;55048;52.220;5.160;2023-04-07T05:01:32;101452.59;;;9.82;90.50
68230;BME280;55048;52.220;5.160;2023-04-07T05:04:03;101437.56;;;9.69;90.42
68230;BME280;55048;52.220;5.160;2023-04-07T05:06:29;101445.72;;;9.75;90.32
68230;BME280;55048;52.220;5.160;2023-04-07T05:08:58;101466.19;;;9.92;89.97
68230;BME280;55048;52.220;5.160;2023-04-07T05:11:29;101461.13;;;9.91;89.82
68230;BME280;55048;52.220;5.160;2023-04-07T05:13:55;101433.84;;;9.77;89.84
68230;BME280;55048;52.220;5.160;2023-04-07T05:16:21;101454.88;;;9.79;90.50
68230;BME280;55048;52.220;5.160;2023-04-07T05:18:46;101453.84;;;9.80;90.19
68230;BME280;55048;52.220;5.160;2023-04-07T05:21:12;101477.28;;;9.89;90.27
68230;BME280;55048;52.220;5.160;2023-04-07T05:23:38;101439.22;;;9.70;90.04
68230;BME280;55048;52.220;5.160;2023-04-07T05:26:05;101467.31;;;9.85;90.48
68230;BME280;55048;52.220;5.160;2023-04-07T05:28:30;101475.84;;;9.87;90.91
68230;BME280;55048;52.220;5.160;2023-04-07T05:31:00;101439.31;;;9.57;90.76
68230;BME280;55048;52.220;5.160;2023-04-07T05:33:29;101447.81;;;9.66;90.36
68230;BME280;55048;52.220;5.160;2023-04-07T05:35:55;101452.31;;;9.65;90.29
68230;BME280;55048;52.220;5.160;2023-04-07T05:38:20;101460.28;;;9.65;91.02
68230;BME280;55048;52.220;5.160;2023-04-07T05:40:46;101488.97;;;9.82;90.31
68230;BME280;55048;52.220;5.160;2023-04-07T05:43:18;101480.75;;;9.90;90.32
68230;BME280;55048;52.220;5.160;2023-04-07T05:45:43;101480.94;;;9.88;89.63
68230;BME280;55048;52.220;5.160;2023-04-07T05:48:09;101480.25;;;10.00;89.89
68230;BME280;55048;52.220;5.160;2023-04-07T05:50:42;101466.66;;;9.89;89.84
68230;BME280;55048;52.220;5.160;2023-04-07T05:53:11;101486.78;;;10.04;89.36
68230;BME280;55048;52.220;5.160;2023-04-07T05:55:37;101490.84;;;10.06;89.18
68230;BME280;55048;52.220;5.160;2023-04-07T05:58:05;101503.69;;;10.09;89.51
68230;BME280;55048;52.220;5.160;2023-04-07T06:00:31;101487.59;;;10.04;89.26
68230;BME280;55048;52.220;5.160;2023-04-07T06:03:03;101488.63;;;10.03;89.47
68230;BME280;55048;52.220;5.160;2023-04-07T06:05:35;101492.50;;;10.01;89.66
68230;BME280;55048;52.220;5.160;2023-04-07T06:08:00;101494.13;;;10.02;89.96
68230;BME280;55048;52.220;5.160;2023-04-07T06:10:27;101478.47;;;9.93;89.95
68230;BME280;55048;52.220;5.160;2023-04-07T06:12:53;101501.63;;;10.11;89.94
68230;BME280;55048;52.220;5.160;2023-04-07T06:15:18;101492.75;;;9.99;90.32
68230;BME280;55048;52.220;5.160;2023-04-07T06:17:43;101504.28;;;10.11;89.94
68230;BME280;55048;52.220;5.160;2023-04-07T06:20:10;101510.25;;;10.07;90.25
68230;BME280;55048;52.220;5.160;2023-04-07T06:22:37;101515.56;;;10.07;90.46
68230;BME280;55048;52.220;5.160;2023-04-07T06:25:03;101503.75;;;10.03;90.02
68230;BME280;55048;52.220;5.160;2023-04-07T06:27:30;101487.63;;;9.97;90.12
68230;BME280;55048;52.220;5.160;2023-04-07T06:29:57;101495.41;;;9.99;89.79
68230;BME280;55048;52.220;5.160;2023-04-07T06:32:22;101509.25;;;10.08;89.94
68230;BME280;55048;52.220;5.160;2023-04-07T06:34:48;101497.09;;;9.93;89.88
68230;BME280;55048;52.220;5.160;2023-04-07T06:37:13;101502.50;;;10.05;90.36
68230;BME280;55048;52.220;5.160;2023-04-07T06:39:41;101520.44;;;10.10;90.55
68230;BME280;55048;52.220;5.160;2023-04-07T06:42:06;101518.59;;;10.10;90.79
68230;BME280;55048;52.220;5.160;2023-04-07T06:44:36;101523.09;;;10.10;91.09
68230;BME280;55048;52.220;5.160;2023-04-07T06:47:02;101519.47;;;10.04;90.48
68230;BME280;55048;52.220;5.160;2023-04-07T06:49:27;101464.41;;;9.61;90.73
68230;BME280;55048;52.220;5.160;2023-04-07T06:51:53;101503.38;;;9.99;90.30
68230;BME280;55048;52.220;5.160;2023-04-07T06:54:18;101493.41;;;9.88;90.55
68230;BME280;55048;52.220;5.160;2023-04-07T06:56:43;101496.47;;;9.91;90.45
68230;BME280;55048;52.220;5.160;2023-04-07T06:59:09;101538.56;;;10.26;90.57
68230;BME280;55048;52.220;5.160;2023-04-07T07:01:35;101542.84;;;10.27;90.34
68230;BME280;55048;52.220;5.160;2023-04-07T07:04:02;101511.94;;;10.01;90.77
68230;BME280;55048;52.220;5.160;2023-04-07T07:06:27;101536.16;;;10.11;90.85
68230;BME280;55048;52.220;5.160;2023-04-07T07:08:53;101538.66;;;10.06;91.04
68230;BME280;55048;52.220;5.160;2023-04-07T07:11:18;101541.31;;;10.06;90.42
68230;BME280;55048;52.220;5.160;2023-04-07T07:13:44;101532.25;;;9.89;91.18
68230;BME280;55048;52.220;5.160;2023-04-07T07:16:12;101486.47;;;9.62;90.70
68230;BME280;55048;52.220;5.160;2023-04-07T07:18:38;101563.59;;;10.12;90.89
68230;BME280;55048;52.220;5.160;2023-04-07T07:21:04;101540.19;;;9.95;91.12
68230;BME280;55048;52.220;5.160;2023-04-07T07:23:29;101536.53;;;9.90;90.78
68230;BME280;55048;52.220;5.160;2023-04-07T07:25:55;101553.59;;;10.07;90.50
68230;BME280;55048;52.220;5.160;2023-04-07T07:28:20;101542.75;;;10.09;90.33
68230;BME280;55048;52.220;5.160;2023-04-07T07:30:46;101552.09;;;10.18;89.48
68230;BME280;55048;52.220;5.160;2023-04-07T07:33:12;101562.44;;;10.33;89.63
68230;BME280;55048;52.220;5.160;2023-04-07T07:35:37;101568.53;;;10.40;89.33
68230;BME280;55048;52.220;5.160;2023-04-07T07:38:05;101579.31;;;10.45;88.93
68230;BME280;55048;52.220;5.160;2023-04-07T07:40:30;101575.63;;;10.46;88.83
68230;BME280;55048;52.220;5.160;2023-04-07T07:42:56;101558.91;;;10.39;88.08
68230;BME280;55048;52.220;5.160;2023-04-07T07:45:22;101584.56;;;10.52;88.26
68230;BME280;55048;52.220;5.160;2023-04-07T07:47:47;101590.13;;;10.50;87.94
68230;BME280;55048;52.220;5.160;2023-04-07T07:50:12;101564.66;;;10.36;87.75
68230;BME280;55048;52.220;5.160;2023-04-07T07:52:38;101590.47;;;10.54;87.79
68230;BME280;55048;52.220;5.160;2023-04-07T07:55:04;101578.50;;;10.44;87.37
68230;BME280;55048;52.220;5.160;2023-04-07T07:57:29;101605.38;;;10.30;85.86
68230;BME280;55048;52.220;5.160;2023-04-07T07:59:57;101601.59;;;10.44;86.76
68230;BME280;55048;52.220;5.160;2023-04-07T08:02:23;101577.41;;;10.27;86.53
68230;BME280;55048;52.220;5.160;2023-04-07T08:04:55;101597.00;;;10.33;86.37
68230;BME280;55048;52.220;5.160;2023-04-07T08:07:20;101583.75;;;10.26;86.47
68230;BME280;55048;52.220;5.160;2023-04-07T08:09:46;101581.09;;;10.26;85.85
68230;BME280;55048;52.220;5.160;2023-04-07T08:12:11;101596.78;;;10.34;85.57
68230;BME280;55048;52.220;5.160;2023-04-07T08:14:36;101590.94;;;10.19;85.95
68230;BME280;55048;52.220;5.160;2023-04-07T08:17:02;101582.56;;;10.15;85.99
68230;BME280;55048;52.220;5.160;2023-04-07T08:19:27;101601.34;;;10.27;85.48
68230;BME280;55048;52.220;5.160;2023-04-07T08:21:52;101588.09;;;10.14;85.21
68230;BME280;55048;52.220;5.160;2023-04-07T08:24:18;101618.09;;;10.28;85.12
68230;BME280;55048;52.220;5.160;2023-04-07T08:26:43;101598.66;;;10.20;85.15
68230;BME280;55048;52.220;5.160;2023-04-07T08:29:09;101571.97;;;10.09;84.66
68230;BME280;55048;52.220;5.160;2023-04-07T08:31:35;101604.59;;;10.22;84.90
68230;BME280;55048;52.220;5.160;2023-04-07T08:34:00;101616.38;;;10.02;85.43
68230;BME280;55048;52.220;5.160;2023-04-07T08:36:26;101622.41;;;10.22;85.01
68230;BME280;55048;52.220;5.160;2023-04-07T08:38:53;101628.31;;;10.31;84.88
68230;BME280;55048;52.220;5.160;2023-04-07T08:41:39;101618.94;;;10.21;85.39
68230;BME280;55048;52.220;5.160;2023-04-07T08:44:06;101624.22;;;10.28;85.29
68230;BME280;55048;52.220;5.160;2023-04-07T08:46:32;101640.31;;;10.40;84.51
68230;BME280;55048;52.220;5.160;2023-04-07T08:48:59;101630.44;;;10.47;84.21
68230;BME280;55048;52.220;5.160;2023-04-07T08:51:30;101620.75;;;10.28;83.85
68230;BME280;55048;52.220;5.160;2023-04-07T08:54:16;101608.56;;;10.45;83.81
68230;BME280;55048;52.220;5.160;2023-04-07T08:56:43;101638.41;;;10.72;83.70
68230;BME280;55048;52.220;5.160;2023-04-07T08:59:11;101634.28;;;10.76;83.13
68230;BME280;55048;52.220;5.160;2023-04-07T09:01:38;101638.75;;;10.82;83.09
68230;BME280;55048;52.220;5.160;2023-04-07T09:04:05;101633.78;;;10.86;83.20
68230;BME280;55048;52.220;5.160;2023-04-07T09:06:32;101642.97;;;10.90;82.90
68230;BME280;55048;52.220;5.160;2023-04-07T09:08:59;101631.34;;;10.84;82.86
68230;BME280;55048;52.220;5.160;2023-04-07T09:11:28;101654.53;;;11.02;82.88
68230;BME280;55048;52.220;5.160;2023-04-07T09:13:55;101642.03;;;11.03;82.65
68230;BME280;55048;52.220;5.160;2023-04-07T09:16:22;101657.78;;;11.04;82.09
68230;BME280;55048;52.220;5.160;2023-04-07T09:18:51;101647.75;;;11.06;82.21
68230;BME280;55048;52.220;5.160;2023-04-07T09:21:17;101608.84;;;10.87;81.78
68230;BME280;55048;52.220;5.160;2023-04-07T09:23:42;101657.88;;;11.16;81.68
68230;BME280;55048;52.220;5.160;2023-04-07T09:28:44;101663.22;;;11.16;80.71
68230;BME280;55048;52.220;5.160;2023-04-07T09:31:10;101661.38;;;11.16;80.24
68230;BME280;55048;52.220;5.160;2023-04-07T09:33:36;101648.13;;;11.10;79.84
68230;BME280;55048;52.220;5.160;2023-04-07T09:36:03;101655.06;;;11.11;80.20
68230;BME280;55048;52.220;5.160;2023-04-07T09:38:37;101668.47;;;11.22;79.49
68230;BME280;55048;52.220;5.160;2023-04-07T09:41:11;101648.88;;;11.17;79.18
68230;BME280;55048;52.220;5.160;2023-04-07T09:43:40;101630.44;;;10.97;78.59
68230;BME280;55048;52.220;5.160;2023-04-07T09:46:16;101668.41;;;11.29;79.01
68230;BME280;55048;52.220;5.160;2023-04-07T09:48:45;101654.28;;;11.10;78.51
68230;BME280;55048;52.220;5.160;2023-04-07T09:51:15;101644.13;;;11.19;79.03
68230;BME280;55048;52.220;5.160;2023-04-07T09:53:51;101664.19;;;11.40;78.95
68230;BME280;55048;52.220;5.160;2023-04-07T09:56:19;101625.19;;;11.09;78.88
68230;BME280;55048;52.220;5.160;2023-04-07T09:58:47;101630.66;;;11.14;78.76
68230;BME280;55048;52.220;5.160;2023-04-07T10:01:16;101673.59;;;11.42;78.56
68230;BME280;55048;52.220;5.160;2023-04-07T10:03:42;101668.56;;;11.34;78.55
68230;BME280;55048;52.220;5.160;2023-04-07T10:06:08;101649.53;;;11.31;78.58
68230;BME280;55048;52.220;5.160;2023-04-07T10:08:37;101678.97;;;11.36;78.09
68230;BME280;55048;52.220;5.160;2023-04-07T10:11:04;101665.53;;;11.31;77.92
68230;BME280;55048;52.220;5.160;2023-04-07T10:13:32;101677.75;;;11.38;78.29
68230;BME280;55048;52.220;5.160;2023-04-07T10:15:58;101641.84;;;11.22;77.81
68230;BME280;55048;52.220;5.160;2023-04-07T10:18:29;101679.13;;;11.41;77.43
68230;BME280;55048;52.220;5.160;2023-04-07T10:20:57;101633.59;;;10.87;76.12
68230;BME280;55048;52.220;5.160;2023-04-07T10:23:30;101616.66;;;11.00;76.62
68230;BME280;55048;52.220;5.160;2023-04-07T10:25:57;101590.63;;;10.84;76.55
68230;BME280;55048;52.220;5.160;2023-04-07T10:28:25;101689.94;;;11.46;76.53
68230;BME280;55048;52.220;5.160;2023-04-07T10:30:51;101662.56;;;11.20;76.89
68230;BME280;55048;52.220;5.160;2023-04-07T10:33:44;101695.09;;;11.22;77.70
68230;BME280;55048;52.220;5.160;2023-04-07T10:36:11;101675.28;;;10.93;77.42
68230;BME280;55048;52.220;5.160;2023-04-07T10:38:37;101695.63;;;11.31;77.55
68230;BME280;55048;52.220;5.160;2023-04-07T10:41:34;101681.34;;;11.26;78.09
68230;BME280;55048;52.220;5.160;2023-04-07T10:44:00;101684.53;;;11.34;77.40
68230;BME280;55048;52.220;5.160;2023-04-07T10:49:13;101679.13;;;11.41;77.20
68230;BME280;55048;52.220;5.160;2023-04-07T10:51:39;101681.50;;;11.49;77.06
68230;BME280;55048;52.220;5.160;2023-04-07T10:54:20;101710.00;;;11.67;76.58
68230;BME280;55048;52.220;5.160;2023-04-07T10:59:28;101696.75;;;11.42;77.12
68230;BME280;55048;52.220;5.160;2023-04-07T11:04:44;101694.41;;;11.52;76.67
68230;BME280;55048;52.220;5.160;2023-04-07T11:07:10;101722.88;;;11.52;76.06
68230;BME280;55048;52.220;5.160;2023-04-07T11:09:36;101701.78;;;11.50;76.58
68230;BME280;55048;52.220;5.160;2023-04-07T11:12:02;101720.38;;;11.57;76.54
68230;BME280;55048;52.220;5.160;2023-04-07T11:14:29;101706.75;;;11.65;76.34
68230;BME280;55048;52.220;5.160;2023-04-07T11:16:55;101719.09;;;11.78;76.06
68230;BME280;55048;52.220;5.160;2023-04-07T11:19:21;101701.41;;;11.65;76.07
68230;BME280;55048;52.220;5.160;2023-04-07T11:21:46;101722.00;;;11.76;75.93
68230;BME280;55048;52.220;5.160;2023-04-07T11:24:31;101727.28;;;11.83;75.81
68230;BME280;55048;52.220;5.160;2023-04-07T11:26:57;101715.88;;;11.75;75.20
68230;BME280;55048;52.220;5.160;2023-04-07T11:29:30;101726.25;;;11.84;75.06
68230;BME280;55048;52.220;5.160;2023-04-07T11:32:00;101727.03;;;11.66;74.62
68230;BME280;55048;52.220;5.160;2023-04-07T11:34:33;101727.53;;;11.74;74.42
68230;BME280;55048;52.220;5.160;2023-04-07T11:37:19;101725.22;;;11.85;74.63
68230;BME280;55048;52.220;5.160;2023-04-07T11:39:53;101723.88;;;11.94;74.19
68230;BME280;55048;52.220;5.160;2023-04-07T11:42:35;101727.22;;;11.89;73.60
68230;BME280;55048;52.220;5.160;2023-04-07T11:45:01;101733.13;;;11.91;73.50
68230;BME280;55048;52.220;5.160;2023-04-07T11:47:37;101741.47;;;11.77;73.64
68230;BME280;55048;52.220;5.160;2023-04-07T11:50:03;101744.69;;;11.85;74.12
68230;BME280;55048;52.220;5.160;2023-04-07T11:52:40;101730.28;;;11.68;74.39
68230;BME280;55048;52.220;5.160;2023-04-07T11:55:06;101720.19;;;11.52;74.52
68230;BME280;55048;52.220;5.160;2023-04-07T11:57:31;101750.50;;;11.75;74.80
68230;BME280;55048;52.220;5.160;2023-04-07T12:00:11;101746.94;;;11.63;75.76
68230;BME280;55048;52.220;5.160;2023-04-07T12:02:36;101734.66;;;11.62;75.39
68230;BME280;55048;52.220;5.160;2023-04-07T12:05:03;101734.94;;;11.54;75.38
68230;BME280;55048;52.220;5.160;2023-04-07T12:07:28;101745.59;;;11.54;75.67
68230;BME280;55048;52.220;5.160;2023-04-07T12:09:54;101739.47;;;11.54;75.58
68230;BME280;55048;52.220;5.160;2023-04-07T12:12:26;101714.13;;;11.44;75.42
68230;BME280;55048;52.220;5.160;2023-04-07T12:14:53;101756.19;;;11.79;75.29
68230;BME280;55048;52.220;5.160;2023-04-07T12:17:23;101729.91;;;11.64;74.97
68230;BME280;55048;52.220;5.160;2023-04-07T12:19:49;101758.56;;;11.69;75.71
68230;BME280;55048;52.220;5.160;2023-04-07T12:22:14;101763.97;;;11.81;75.63
68230;BME280;55048;52.220;5.160;2023-04-07T12:24:40;101757.59;;;11.63;75.45
68230;BME280;55048;52.220;5.160;2023-04-07T12:27:06;101746.19;;;11.56;75.70
68230;BME280;55048;52.220;5.160;2023-04-07T12:29:32;101729.47;;;11.49;75.90
68230;BME280;55048;52.220;5.160;2023-04-07T12:31:58;101746.72;;;11.65;75.78
68230;BME280;55048;52.220;5.160;2023-04-07T12:34:24;101761.59;;;11.72;75.81
68230;BME280;55048;52.220;5.160;2023-04-07T12:36:49;101776.16;;;11.70;75.85
68230;BME280;55048;52.220;5.160;2023-04-07T12:39:15;101784.13;;;11.77;75.88
68230;BME280;55048;52.220;5.160;2023-04-07T12:41:40;101777.50;;;11.79;75.96
68230;BME280;55048;52.220;5.160;2023-04-07T12:44:06;101744.84;;;11.65;76.11
68230;BME280;55048;52.220;5.160;2023-04-07T12:46:32;101742.66;;;11.62;75.87
68230;BME280;55048;52.220;5.160;2023-04-07T12:48:57;101784.50;;;11.80;76.06
68230;BME280;55048;52.220;5.160;2023-04-07T12:51:22;101776.03;;;11.65;76.65
68230;BME280;55048;52.220;5.160;2023-04-07T12:53:48;101783.31;;;11.76;76.51
68230;BME280;55048;52.220;5.160;2023-04-07T12:56:13;101769.38;;;11.74;76.67
68230;BME280;55048;52.220;5.160;2023-04-07T12:58:39;101774.84;;;11.79;76.54
68230;BME280;55048;52.220;5.160;2023-04-07T13:01:05;101773.19;;;11.85;76.27
68230;BME280;55048;52.220;5.160;2023-04-07T13:03:31;101775.53;;;11.93;76.04
68230;BME280;55048;52.220;5.160;2023-04-07T13:05:56;101767.41;;;11.88;75.75
68230;BME280;55048;52.220;5.160;2023-04-07T13:08:26;101801.03;;;12.07;75.36
68230;BME280;55048;52.220;5.160;2023-04-07T13:10:52;101804.69;;;12.13;75.54
68230;BME280;55048;52.220;5.160;2023-04-07T13:13:17;101764.88;;;11.93;75.31
68230;BME280;55048;52.220;5.160;2023-04-07T13:15:43;101736.41;;;11.50;76.12